Time;durP1;ratioP1;P1;durP2;ratioP2;P2;SDS_P1;SDS_P2;PMS_P1;PMS_P2;Temp;Humidity;BMP_temperature;BMP_pressure;BME280_temperature;BME280_humidity;BME280_pressure;Samples;Min_cycle;Max_cycle;Signal;HPM_P1;HPM_P2
2022/04/21 00:01:42;;;;;;;;;;;8.00;99.90;;;;;;5072561;28;19925;-80
2022/04/21 00:04:09;;;;;;;;;;;8.00;99.90;;;;;;5047188;28;19928;-79
2022/04/21 00:06:36;;;;;;;;;;;8.00;99.90;;;;;;5046972;28;19999;-80
2022/04/21 00:09:02;;;;;;;;;;;8.10;99.90;;;;;;5068896;28;19933;-80
2022/04/21 00:11:29;;;;;;;;;;;8.10;99.90;;;;;;5044421;28;19925;-80
2022/04/21 00:13:55;;;;;;;;;;;8.10;99.90;;;;;;5046026;28;19924;-81
2022/04/21 00:16:22;;;;;;;;;;;8.10;99.90;;;;;;5032014;28;19932;-79
2022/04/21 00:18:48;;;;;;;;;;;8.10;99.90;;;;;;5039119;28;19932;-79
2022/04/21 00:21:15;;;;;;;;;;;8.10;99.90;;;;;;5034480;28;19925;-79
2022/04/21 00:23:40;;;;;;;;;;;8.10;99.90;;;;;;5057818;28;20283;-79
2022/04/21 00:26:07;;;;;;;;;;;8.10;99.90;;;;;;5048833;28;19931;-84
2022/04/21 00:28:33;;;;;;;;;;;8.10;99.90;;;;;;5045760;28;20376;-79
2022/04/21 00:31:00;;;;;;;;;;;8.20;99.90;;;;;;5069980;28;20391;-80
2022/04/21 00:33:26;;;;;;;;;;;8.20;99.90;;;;;;5021703;28;19932;-79
2022/04/21 00:35:53;;;;;;;;;;;8.30;99.90;;;;;;5015896;28;19933;-78
2022/04/21 00:38:19;;;;;;;;;;;8.40;99.90;;;;;;5009751;28;19925;-79
2022/04/21 00:40:49;;;;;;;;;;;8.40;99.90;;;;;;5003043;28;19926;-78
2022/04/21 00:43:15;;;;;;;;;;;8.30;99.90;;;;;;5019142;28;20335;-79
2022/04/21 00:45:42;;;;;;;;;;;8.30;99.90;;;;;;5024120;28;19937;-79
2022/04/21 00:48:08;;;;;;;;;;;8.20;99.90;;;;;;5002763;28;19929;-84
2022/04/21 00:50:35;;;;;;;;;;;8.20;99.90;;;;;;5008486;28;19926;-79
2022/04/21 00:53:01;;;;;;;;;;;8.20;99.90;;;;;;5013368;28;19926;-79
2022/04/21 00:55:28;;;;;;;;;;;8.20;99.90;;;;;;5023585;28;19956;-79
2022/04/21 00:57:55;;;;;;;;;;;8.30;99.90;;;;;;5001818;28;20282;-80
2022/04/21 01:00:21;;;;;;;;;;;8.20;99.90;;;;;;5021816;28;19973;-79
2022/04/21 01:02:49;;;;;;;;;;;8.30;99.90;;;;;;5021018;28;19925;-79
2022/04/21 01:05:15;;;;;;;;;;;8.30;99.90;;;;;;5013471;28;20447;-79
2022/04/21 01:07:42;;;;;;;;;;;8.20;99.90;;;;;;5011102;28;19930;-79
2022/04/21 01:10:08;;;;;;;;;;;8.20;99.90;;;;;;5003990;28;19926;-83
2022/04/21 01:12:35;;;;;;;;;;;8.20;99.90;;;;;;5016400;28;19932;-79
2022/04/21 01:15:01;;;;;;;;;;;8.20;99.90;;;;;;5031171;28;19979;-80
2022/04/21 01:17:28;;;;;;;;;;;8.20;99.90;;;;;;4996668;28;19996;-80
2022/04/21 01:19:55;;;;;;;;;;;8.20;99.90;;;;;;5013768;28;20373;-79
2022/04/21 01:22:21;;;;;;;;;;;8.20;99.90;;;;;;5013014;28;19925;-79
2022/04/21 01:24:48;;;;;;;;;;;8.20;99.90;;;;;;5006462;28;19973;-79
2022/04/21 01:27:14;;;;;;;;;;;8.20;99.90;;;;;;5019580;28;20384;-79
2022/04/21 01:29:42;;;;;;;;;;;8.10;99.90;;;;;;5012959;28;19965;-79
2022/04/21 01:32:09;;;;;;;;;;;8.10;99.90;;;;;;5016536;28;19925;-78
2022/04/21 01:34:35;;;;;;;;;;;8.10;99.90;;;;;;5017979;28;19925;-79
2022/04/21 01:42:30;;;;;;;;;;;7.90;99.90;;;;;;5052740;28;19932;-80
2022/04/21 01:44:57;;;;;;;;;;;7.90;99.90;;;;;;5047044;28;19928;-79
2022/04/21 01:47:23;;;;;;;;;;;7.80;99.90;;;;;;5030143;28;19928;-80
2022/04/21 01:49:50;;;;;;;;;;;7.80;99.90;;;;;;5050498;28;19924;-80
2022/04/21 01:52:16;;;;;;;;;;;7.80;99.90;;;;;;5026360;28;19925;-79
2022/04/21 01:54:44;;;;;;;;;;;7.60;99.90;;;;;;5033588;28;19975;-82
2022/04/21 01:57:10;;;;;;;;;;;7.60;99.90;;;;;;5043724;28;19928;-78
2022/04/21 01:59:37;;;;;;;;;;;7.60;99.90;;;;;;5045704;28;20368;-79
2022/04/21 02:02:04;;;;;;;;;;;7.50;99.90;;;;;;5048648;28;20360;-79
2022/04/21 02:04:30;;;;;;;;;;;7.50;99.90;;;;;;5065100;28;19979;-80
2022/04/21 02:06:57;;;;;;;;;;;7.50;99.90;;;;;;5034935;28;19924;-79
2022/04/21 02:09:23;;;;;;;;;;;7.50;99.90;;;;;;5040708;28;19925;-80
2022/04/21 02:11:51;;;;;;;;;;;7.40;99.90;;;;;;5029829;28;19939;-79
2022/04/21 02:14:17;;;;;;;;;;;7.30;99.90;;;;;;5059596;28;19932;-79
2022/04/21 02:16:44;;;;;;;;;;;7.30;99.90;;;;;;5052938;28;20474;-82
2022/04/21 02:19:10;;;;;;;;;;;7.30;99.90;;;;;;5034093;28;19929;-79
2022/04/21 02:21:37;;;;;;;;;;;7.30;99.90;;;;;;5061204;28;19929;-80
2022/04/21 02:24:03;;;;;;;;;;;7.20;99.90;;;;;;5035197;28;19932;-79
2022/04/21 02:26:30;;;;;;;;;;;7.20;99.90;;;;;;5040904;28;19974;-79
2022/04/21 02:28:56;;;;;;;;;;;7.10;99.90;;;;;;5043357;28;20298;-78
2022/04/21 02:31:23;;;;;;;;;;;7.10;99.90;;;;;;5034621;28;19925;-80
2022/04/21 02:33:49;;;;;;;;;;;7.00;99.90;;;;;;5045241;28;19971;-80
2022/04/21 02:36:16;;;;;;;;;;;7.00;99.90;;;;;;5034177;28;19932;-85
2022/04/21 02:38:42;;;;;;;;;;;7.00;99.90;;;;;;5022549;28;19926;-83
2022/04/21 02:41:09;;;;;;;;;;;6.90;99.90;;;;;;5018270;28;19925;-78
2022/04/21 02:43:35;;;;;;;;;;;6.90;99.90;;;;;;5047967;28;20040;-79
2022/04/21 02:46:02;;;;;;;;;;;6.80;99.90;;;;;;5047618;28;19924;-80
2022/04/21 02:48:28;;;;;;;;;;;6.80;99.90;;;;;;5044926;28;19948;-80
2022/04/21 02:50:55;;;;;;;;;;;6.70;99.90;;;;;;5045076;28;20360;-80
2022/04/21 02:57:19;;;;;;;;;;;6.80;99.90;;;;;;5024421;28;19925;-81
2022/04/21 02:58:52;;;;;;;;;;;6.70;99.90;;;;;;5048741;28;19940;-80
2022/04/21 03:01:19;;;;;;;;;;;6.60;99.90;;;;;;5042584;28;19924;-84
2022/04/21 03:03:45;;;;;;;;;;;6.50;99.90;;;;;;5038485;28;19925;-80
2022/04/21 03:06:12;;;;;;;;;;;6.50;99.90;;;;;;5041997;28;19932;-80
2022/04/21 03:08:39;;;;;;;;;;;6.50;99.90;;;;;;5057432;28;20052;-80
2022/04/21 03:11:05;;;;;;;;;;;6.40;99.90;;;;;;5046037;28;19932;-80
2022/04/21 03:13:32;;;;;;;;;;;6.40;99.90;;;;;;5041425;28;20425;-79
2022/04/21 03:15:58;;;;;;;;;;;6.30;99.90;;;;;;5042395;28;19932;-79
2022/04/21 03:18:25;;;;;;;;;;;6.30;99.90;;;;;;5049976;28;19931;-80
2022/04/21 03:26:19;;;;;;;;;;;6.20;99.90;;;;;;5024768;28;20011;-84
2022/04/21 03:28:46;;;;;;;;;;;6.10;99.90;;;;;;5050849;28;19935;-81
2022/04/21 03:31:12;;;;;;;;;;;6.10;99.90;;;;;;5046946;28;19947;-80
2022/04/21 03:33:39;;;;;;;;;;;6.10;99.90;;;;;;5066051;28;19924;-80
2022/04/21 03:36:06;;;;;;;;;;;6.00;99.90;;;;;;5036110;28;19925;-81
2022/04/21 03:38:32;;;;;;;;;;;6.00;99.90;;;;;;5045197;28;19936;-81
2022/04/21 03:40:59;;;;;;;;;;;6.00;99.90;;;;;;5058584;28;19928;-79
2022/04/21 03:43:26;;;;;;;;;;;6.10;99.90;;;;;;5052389;28;19924;-81
2022/04/21 03:45:52;;;;;;;;;;;6.00;99.90;;;;;;5041421;28;19925;-80
2022/04/21 03:48:19;;;;;;;;;;;6.00;99.90;;;;;;5037755;28;19987;-81
2022/04/21 03:50:46;;;;;;;;;;;5.90;99.90;;;;;;5028489;28;19928;-80
2022/04/21 03:53:12;;;;;;;;;;;5.90;99.90;;;;;;5030778;28;20291;-81
2022/04/21 03:55:39;;;;;;;;;;;5.90;99.90;;;;;;5041542;28;20271;-80
2022/04/21 03:58:05;;;;;;;;;;;5.80;99.90;;;;;;5041930;28;20296;-79
2022/04/21 04:00:32;;;;;;;;;;;5.80;99.90;;;;;;5049713;28;19929;-80
2022/04/21 04:02:58;;;;;;;;;;;5.90;99.90;;;;;;5029833;28;19924;-80
2022/04/21 04:05:25;;;;;;;;;;;5.80;99.90;;;;;;5049570;28;19925;-81
2022/04/21 04:13:22;;;;;;;;;;;5.70;99.90;;;;;;5038834;28;20413;-84
2022/04/21 04:15:49;;;;;;;;;;;5.70;99.90;;;;;;5056643;28;19982;-79
2022/04/21 04:18:16;;;;;;;;;;;5.70;99.90;;;;;;5038842;28;20012;-80
2022/04/21 04:20:42;;;;;;;;;;;5.70;99.90;;;;;;5049055;28;19925;-80
2022/04/21 04:23:09;;;;;;;;;;;5.80;99.90;;;;;;5037890;28;19924;-80
2022/04/21 04:25:36;;;;;;;;;;;5.70;99.90;;;;;;5052955;28;19932;-81
2022/04/21 04:28:04;;;;;;;;;;;5.80;99.90;;;;;;5061791;28;19929;-80
2022/04/21 04:30:30;;;;;;;;;;;5.80;99.90;;;;;;5027976;28;20008;-81
2022/04/21 04:32:57;;;;;;;;;;;5.80;99.90;;;;;;5060047;28;19924;-80
2022/04/21 04:35:25;;;;;;;;;;;5.90;99.90;;;;;;5043686;28;19925;-85
2022/04/21 04:37:51;;;;;;;;;;;5.90;99.90;;;;;;5032807;28;19930;-79
2022/04/21 04:40:18;;;;;;;;;;;6.00;99.90;;;;;;5039597;28;19925;-79
2022/04/21 04:42:43;;;;;;;;;;;6.20;99.90;;;;;;5041484;28;19924;-80
2022/04/21 04:47:54;;;;;;;;;;;6.40;99.90;;;;;;5071024;28;20380;-80
2022/04/21 04:50:21;;;;;;;;;;;6.50;99.90;;;;;;5068215;28;19925;-79
2022/04/21 04:52:47;;;;;;;;;;;6.60;99.90;;;;;;5027439;28;19940;-79
2022/04/21 04:55:14;;;;;;;;;;;6.70;99.90;;;;;;5047940;28;19931;-80
2022/04/21 04:57:40;;;;;;;;;;;6.80;99.90;;;;;;5031980;28;19932;-80
2022/04/21 05:00:08;;;;;;;;;;;6.90;99.90;;;;;;5045494;28;19924;-81
2022/04/21 05:02:34;;;;;;;;;;;7.00;99.90;;;;;;5045904;28;19925;-81
2022/04/21 05:05:01;;;;;;;;;;;7.10;99.90;;;;;;5066288;28;19925;-80
2022/04/21 05:07:27;;;;;;;;;;;7.20;99.90;;;;;;5047393;28;20347;-85
2022/04/21 05:09:54;;;;;;;;;;;7.40;99.90;;;;;;5030836;28;20296;-79
2022/04/21 05:12:21;;;;;;;;;;;7.40;99.90;;;;;;5044044;28;19925;-80
2022/04/21 05:14:48;;;;;;;;;;;7.50;99.90;;;;;;5050107;28;19932;-79
2022/04/21 05:17:15;;;;;;;;;;;7.60;99.90;;;;;;5037133;28;20000;-80
2022/04/21 05:19:41;;;;;;;;;;;7.70;99.90;;;;;;5049691;28;19931;-80
2022/04/21 05:22:08;;;;;;;;;;;7.80;99.90;;;;;;5053936;28;19925;-80
2022/04/21 05:24:34;;;;;;;;;;;8.00;99.90;;;;;;5025385;28;19932;-80
2022/04/21 05:27:01;;;;;;;;;;;8.00;99.90;;;;;;5048814;28;19925;-80
2022/04/21 05:32:12;;;;;;;;;;;8.20;99.90;;;;;;5064924;28;20261;-80
2022/04/21 05:34:39;;;;;;;;;;;8.20;99.90;;;;;;5048420;28;20387;-80
2022/04/21 05:37:05;;;;;;;;;;;8.40;99.90;;;;;;5062356;28;20406;-81
2022/04/21 05:39:32;;;;;;;;;;;8.50;99.90;;;;;;5047538;28;20359;-81
2022/04/21 05:41:58;;;;;;;;;;;8.60;99.90;;;;;;5049315;28;19935;-79
2022/04/21 05:44:25;;;;;;;;;;;8.60;99.90;;;;;;5044759;28;19970;-80
2022/04/21 05:46:51;;;;;;;;;;;8.60;99.90;;;;;;5063246;28;19936;-80
2022/04/21 05:49:18;;;;;;;;;;;8.90;99.90;;;;;;5056228;28;20007;-80
2022/04/21 05:51:46;;;;;;;;;;;8.70;99.90;;;;;;5044033;28;19925;-80
2022/04/21 05:54:14;;;;;;;;;;;9.00;99.90;;;;;;5058676;28;20384;-79
2022/04/21 05:56:40;;;;;;;;;;;9.10;99.90;;;;;;5041222;28;19971;-85
2022/04/21 05:59:07;;;;;;;;;;;9.20;99.90;;;;;;5043942;28;19947;-80
2022/04/21 06:01:33;;;;;;;;;;;9.40;99.90;;;;;;5064461;28;20372;-80
2022/04/21 06:04:00;;;;;;;;;;;9.40;99.90;;;;;;5059267;28;19928;-81
2022/04/21 06:06:26;;;;;;;;;;;9.50;99.90;;;;;;5049584;28;19925;-82
2022/04/21 06:08:53;;;;;;;;;;;9.50;99.90;;;;;;5028147;28;20365;-81
2022/04/21 06:11:19;;;;;;;;;;;9.70;99.90;;;;;;5030453;28;19933;-81
2022/04/21 06:13:46;;;;;;;;;;;9.60;99.90;;;;;;5045730;28;20372;-82
2022/04/21 06:16:13;;;;;;;;;;;9.70;99.90;;;;;;5047108;28;19931;-78
2022/04/21 06:18:39;;;;;;;;;;;9.70;99.90;;;;;;5047160;28;19925;-80
2022/04/21 06:21:06;;;;;;;;;;;10.00;99.90;;;;;;5028852;28;20376;-81
2022/04/21 06:23:33;;;;;;;;;;;10.00;99.90;;;;;;5028271;28;19926;-89
2022/04/21 06:26:00;;;;;;;;;;;10.20;99.90;;;;;;5028700;28;20363;-81
2022/04/21 06:28:27;;;;;;;;;;;10.30;99.90;;;;;;5045183;28;19983;-81
2022/04/21 06:30:53;;;;;;;;;;;10.60;99.90;;;;;;5029328;28;20372;-81
2022/04/21 06:33:20;;;;;;;;;;;10.50;99.90;;;;;;5025352;28;19925;-80
2022/04/21 06:35:46;;;;;;;;;;;10.60;99.90;;;;;;5044020;28;19925;-81
2022/04/21 06:38:13;;;;;;;;;;;10.70;99.90;;;;;;5026268;28;19925;-81
2022/04/21 06:40:39;;;;;;;;;;;10.80;99.90;;;;;;5026897;28;19925;-81
2022/04/21 06:48:31;;;;;;;;;;;11.50;99.90;;;;;;5030670;28;19925;-82
2022/04/21 06:50:57;;;;;;;;;;;11.50;99.90;;;;;;5032611;28;20019;-81
2022/04/21 06:53:24;;;;;;;;;;;11.60;99.90;;;;;;5031444;28;19925;-81
2022/04/21 06:55:51;;;;;;;;;;;11.80;99.90;;;;;;5043310;28;20442;-76
2022/04/21 06:58:17;;;;;;;;;;;12.00;99.90;;;;;;5025206;28;19924;-75
2022/04/21 07:00:44;;;;;;;;;;;12.10;99.90;;;;;;5043013;28;19933;-80
2022/04/21 07:03:10;;;;;;;;;;;12.30;99.90;;;;;;5024313;28;19933;-81
2022/04/21 07:05:37;;;;;;;;;;;12.30;99.90;;;;;;5044501;28;19925;-82
2022/04/21 07:08:04;;;;;;;;;;;12.30;99.90;;;;;;5051184;28;19925;-81
2022/04/21 07:10:30;;;;;;;;;;;12.30;99.90;;;;;;5046811;28;19968;-81
2022/04/21 07:12:57;;;;;;;;;;;12.30;99.90;;;;;;5043388;28;19929;-81
2022/04/21 07:15:23;;;;;;;;;;;12.00;99.90;;;;;;5048850;28;19933;-81
2022/04/21 07:17:50;;;;;;;;;;;12.20;99.90;;;;;;5045828;28;19929;-80
2022/04/21 07:20:16;;;;;;;;;;;12.40;99.90;;;;;;5047643;28;19932;-86
2022/04/21 07:22:43;;;;;;;;;;;12.50;99.90;;;;;;5042475;28;19925;-80
2022/04/21 07:25:09;;;;;;;;;;;12.50;99.90;;;;;;5031778;28;19931;-79
2022/04/21 07:27:37;;;;;;;;;;;12.70;99.60;;;;;;5032657;28;19951;-88
2022/04/21 07:30:03;;;;;;;;;;;12.80;99.20;;;;;;5038179;28;19928;-79
2022/04/21 07:32:30;;;;;;;;;;;13.00;99.60;;;;;;5028991;28;19929;-82
2022/04/21 07:34:56;;;;;;;;;;;13.10;98.10;;;;;;5030255;28;19936;-81
2022/04/21 07:37:23;;;;;;;;;;;13.00;97.90;;;;;;5052337;28;19936;-81
2022/04/21 07:39:49;;;;;;;;;;;13.20;98.70;;;;;;5044489;28;19925;-81
2022/04/21 07:42:16;;;;;;;;;;;13.00;95.40;;;;;;5035690;28;19929;-82
2022/04/21 07:44:43;;;;;;;;;;;13.10;95.40;;;;;;5037779;28;19925;-81
2022/04/21 07:47:09;;;;;;;;;;;13.40;95.90;;;;;;5059745;28;20019;-81
2022/04/21 07:49:48;;;;;;;;;;;13.50;96.70;;;;;;5031098;28;19936;-89
2022/04/21 07:54:59;;;;;;;;;;;13.60;95.70;;;;;;5032042;28;19933;-82
2022/04/21 07:57:25;;;;;;;;;;;13.70;95.70;;;;;;5052190;28;19933;-82
2022/04/21 07:59:52;;;;;;;;;;;14.00;96.10;;;;;;5044379;28;19936;-82
2022/04/21 08:02:18;;;;;;;;;;;14.20;95.30;;;;;;5029798;28;20481;-82
2022/04/21 08:04:47;;;;;;;;;;;14.30;94.70;;;;;;5028873;28;20382;-81
2022/04/21 08:07:14;;;;;;;;;;;14.30;92.50;;;;;;5032274;28;20261;-81
2022/04/21 08:09:40;;;;;;;;;;;14.40;92.40;;;;;;5028647;28;19925;-84
2022/04/21 08:12:07;;;;;;;;;;;14.20;90.90;;;;;;5022259;28;19929;-83
2022/04/21 08:14:35;;;;;;;;;;;14.20;91.90;;;;;;5023632;28;19929;-83
2022/04/21 08:17:02;;;;;;;;;;;13.90;90.80;;;;;;5048780;28;19958;-85
2022/04/21 08:19:28;;;;;;;;;;;14.20;91.90;;;;;;5044851;28;19929;-84
2022/04/21 08:21:55;;;;;;;;;;;14.10;91.40;;;;;;5028430;28;19948;-83
2022/04/21 08:32:37;;;;;;;;;;;14.50;91.20;;;;;;5035423;28;19997;-83
2022/04/21 08:35:03;;;;;;;;;;;14.50;90.10;;;;;;5034185;28;20368;-85
2022/04/21 08:37:30;;;;;;;;;;;14.50;86.50;;;;;;5053074;28;19929;-82
2022/04/21 08:39:56;;;;;;;;;;;14.40;84.80;;;;;;5026188;28;19925;-82
2022/04/21 08:42:23;;;;;;;;;;;14.30;85.30;;;;;;5036859;28;20008;-83
2022/04/21 08:44:49;;;;;;;;;;;14.50;86.60;;;;;;5056885;28;19943;-83
2022/04/21 08:47:17;;;;;;;;;;;14.60;85.40;;;;;;5051212;28;19940;-85
2022/04/21 08:49:43;;;;;;;;;;;14.60;84.00;;;;;;5041457;28;20700;-83
2022/04/21 08:52:10;;;;;;;;;;;14.50;88.10;;;;;;5046169;28;19925;-83
2022/04/21 08:54:36;;;;;;;;;;;14.50;88.50;;;;;;5020306;28;19948;-85
2022/04/21 08:57:03;;;;;;;;;;;14.40;86.90;;;;;;5039425;28;19972;-89
2022/04/21 08:59:30;;;;;;;;;;;14.50;86.90;;;;;;5022759;28;19936;-85
2022/04/21 09:01:56;;;;;;;;;;;14.80;88.20;;;;;;5034169;28;19929;-83
2022/04/21 09:04:23;;;;;;;;;;;14.80;87.10;;;;;;5025702;28;19929;-82
2022/04/21 09:06:49;;;;;;;;;;;14.90;85.30;;;;;;5042947;28;19940;-83
2022/04/21 09:09:17;;;;;;;;;;;15.10;85.00;;;;;;5034505;28;19932;-83
2022/04/21 09:11:44;;;;;;;;;;;14.90;84.10;;;;;;5021326;28;20026;-83
2022/04/21 09:14:11;;;;;;;;;;;15.20;85.30;;;;;;5056353;28;20383;-83
2022/04/21 09:16:38;;;;;;;;;;;15.30;84.40;;;;;;5038028;28;19929;-84
2022/04/21 09:19:04;;;;;;;;;;;15.10;86.30;;;;;;5035242;28;20327;-82
2022/04/21 09:21:31;;;;;;;;;;;15.10;87.50;;;;;;5047518;28;20316;-84
2022/04/21 09:23:58;;;;;;;;;;;15.20;88.90;;;;;;5034501;28;19950;-83
2022/04/21 09:26:24;;;;;;;;;;;15.30;86.40;;;;;;5034427;28;19928;-86
2022/04/21 09:28:51;;;;;;;;;;;15.30;86.80;;;;;;5026091;28;19925;-85
2022/04/21 09:31:17;;;;;;;;;;;15.50;88.80;;;;;;5042193;28;19936;-82
2022/04/21 09:33:45;;;;;;;;;;;15.70;86.40;;;;;;5052191;28;19953;-89
2022/04/21 09:36:11;;;;;;;;;;;15.60;81.70;;;;;;5042090;28;19933;-83
2022/04/21 09:38:38;;;;;;;;;;;15.80;83.30;;;;;;5043960;28;19940;-83
2022/04/21 09:41:05;;;;;;;;;;;15.70;80.20;;;;;;5060008;28;19944;-86
2022/04/21 09:43:32;;;;;;;;;;;15.60;79.00;;;;;;5029614;28;19929;-82
2022/04/21 09:48:39;;;;;;;;;;;15.50;81.80;;;;;;5033854;28;19928;-81
2022/04/21 09:51:06;;;;;;;;;;;15.70;80.50;;;;;;5050412;28;19983;-81
2022/04/21 09:53:33;;;;;;;;;;;15.90;80.20;;;;;;5024911;28;19932;-82
2022/04/21 09:55:59;;;;;;;;;;;16.00;82.30;;;;;;5050402;28;19924;-80
2022/04/21 09:58:26;;;;;;;;;;;16.10;79.80;;;;;;5066074;28;19928;-81
2022/04/21 10:00:52;;;;;;;;;;;16.10;76.40;;;;;;5066243;28;19929;-81
2022/04/21 10:03:19;;;;;;;;;;;15.80;75.30;;;;;;5052069;28;19925;-80
2022/04/21 10:05:46;;;;;;;;;;;15.90;76.20;;;;;;5064587;28;19999;-86
2022/04/21 10:08:12;;;;;;;;;;;15.70;74.50;;;;;;5062086;28;19924;-81
2022/04/21 10:10:39;;;;;;;;;;;15.70;77.10;;;;;;5067777;28;20047;-78
2022/04/21 10:13:06;;;;;;;;;;;15.80;78.80;;;;;;5039151;28;20297;-81
2022/04/21 10:15:34;;;;;;;;;;;15.80;79.70;;;;;;5033914;28;19925;-81
2022/04/21 10:18:00;;;;;;;;;;;16.00;79.10;;;;;;5031575;28;19932;-81
2022/04/21 10:20:27;;;;;;;;;;;15.90;77.50;;;;;;5048488;28;19928;-81
2022/04/21 10:22:53;;;;;;;;;;;15.80;78.00;;;;;;5034535;28;19931;-82
2022/04/21 10:25:22;;;;;;;;;;;16.00;79.40;;;;;;5038997;28;19924;-81
2022/04/21 10:27:49;;;;;;;;;;;16.00;77.80;;;;;;5023195;28;20292;-82
2022/04/21 10:30:16;;;;;;;;;;;16.00;76.80;;;;;;5041453;28;19928;-81
2022/04/21 10:32:43;;;;;;;;;;;16.00;75.40;;;;;;5048490;28;19925;-80
2022/04/21 10:35:09;;;;;;;;;;;16.10;76.20;;;;;;5024948;28;19931;-81
2022/04/21 10:37:36;;;;;;;;;;;16.00;77.30;;;;;;5041046;28;19935;-82
2022/04/21 10:40:03;;;;;;;;;;;16.00;78.60;;;;;;5041929;28;19932;-83
2022/04/21 10:42:29;;;;;;;;;;;16.20;77.30;;;;;;5035359;28;19957;-84
2022/04/21 10:44:56;;;;;;;;;;;16.20;77.20;;;;;;5038793;28;19929;-83
2022/04/21 10:47:23;;;;;;;;;;;16.40;77.80;;;;;;5029487;28;20007;-84
2022/04/21 10:49:49;;;;;;;;;;;16.50;75.60;;;;;;5029321;28;19928;-89
2022/04/21 10:57:46;;;;;;;;;;;16.60;75.60;;;;;;5022011;28;19932;-83
2022/04/21 11:00:12;;;;;;;;;;;16.50;74.10;;;;;;5043235;28;19929;-83
2022/04/21 11:02:39;;;;;;;;;;;16.60;75.00;;;;;;5027395;28;19925;-85
2022/04/21 11:05:05;;;;;;;;;;;16.60;73.70;;;;;;5036162;28;19925;-83
2022/04/21 11:07:32;;;;;;;;;;;16.60;74.70;;;;;;5036687;28;19931;-85
2022/04/21 11:09:59;;;;;;;;;;;16.40;74.30;;;;;;5037047;28;19931;-83
2022/04/21 11:12:25;;;;;;;;;;;16.20;76.50;;;;;;5033074;28;19925;-84
2022/04/21 11:14:52;;;;;;;;;;;16.20;75.50;;;;;;5041487;28;20030;-85
2022/04/21 11:17:18;;;;;;;;;;;16.30;75.20;;;;;;5045432;28;19925;-85
2022/04/21 11:19:45;;;;;;;;;;;16.20;73.70;;;;;;5049615;28;19929;-84
2022/04/21 11:22:11;;;;;;;;;;;16.20;73.40;;;;;;5055884;28;19925;-82
2022/04/21 11:24:38;;;;;;;;;;;15.90;74.40;;;;;;5040407;28;20376;-83
2022/04/21 11:27:05;;;;;;;;;;;16.10;74.20;;;;;;5047569;28;19932;-82
2022/04/21 11:29:31;;;;;;;;;;;15.90;75.10;;;;;;5047934;28;19932;-83
2022/04/21 11:31:59;;;;;;;;;;;15.90;76.10;;;;;;5059680;28;19933;-82
2022/04/21 11:34:26;;;;;;;;;;;16.40;74.30;;;;;;5059221;28;20364;-82
2022/04/21 11:36:52;;;;;;;;;;;16.60;74.30;;;;;;5052265;28;19924;-87
2022/04/21 11:39:19;;;;;;;;;;;16.30;74.70;;;;;;5037317;28;19925;-81
2022/04/21 11:41:47;;;;;;;;;;;16.00;74.10;;;;;;5040915;28;19924;-81
2022/04/21 11:44:13;;;;;;;;;;;16.10;74.60;;;;;;5046040;28;20017;-80
2022/04/21 11:46:40;;;;;;;;;;;15.80;75.90;;;;;;5053097;28;19929;-83
2022/04/21 11:49:06;;;;;;;;;;;15.90;74.80;;;;;;5045511;28;19970;-82
2022/04/21 11:51:33;;;;;;;;;;;16.00;74.30;;;;;;5047849;28;19928;-84
2022/04/21 11:53:59;;;;;;;;;;;16.20;74.80;;;;;;5075072;28;20363;-81
2022/04/21 11:56:27;;;;;;;;;;;16.30;73.70;;;;;;5039357;28;19932;-83
2022/04/21 11:58:54;;;;;;;;;;;16.20;75.20;;;;;;5031993;28;19925;-87
2022/04/21 12:06:49;;;;;;;;;;;15.80;73.80;;;;;;5052516;28;19979;-83
2022/04/21 12:09:15;;;;;;;;;;;15.70;76.80;;;;;;5041524;28;19929;-82
2022/04/21 12:11:42;;;;;;;;;;;15.70;73.10;;;;;;5037893;28;20371;-85
2022/04/21 12:14:09;;;;;;;;;;;15.90;76.00;;;;;;5034646;28;19925;-81
2022/04/21 12:16:36;;;;;;;;;;;16.00;74.70;;;;;;5059398;28;19925;-82
2022/04/21 12:19:03;;;;;;;;;;;16.20;74.10;;;;;;5053975;28;20015;-81
2022/04/21 12:21:30;;;;;;;;;;;16.30;69.90;;;;;;5027367;28;19925;-82
2022/04/21 12:23:56;;;;;;;;;;;16.30;70.30;;;;;;5045951;28;19948;-84
2022/04/21 12:26:23;;;;;;;;;;;16.60;70.80;;;;;;5050801;28;19924;-82
2022/04/21 12:28:49;;;;;;;;;;;16.50;72.30;;;;;;5060358;28;19925;-83
2022/04/21 12:31:16;;;;;;;;;;;16.50;72.50;;;;;;5031343;28;19925;-82
2022/04/21 12:33:42;;;;;;;;;;;16.70;73.30;;;;;;5046721;28;19924;-81
2022/04/21 12:36:09;;;;;;;;;;;16.70;73.70;;;;;;5056760;28;19932;-82
2022/04/21 12:38:54;;;;;;;;;;;16.80;70.60;;;;;;5063254;28;19924;-83
2022/04/21 12:41:21;;;;;;;;;;;16.80;71.70;;;;;;5065789;28;19934;-83
2022/04/21 12:43:48;;;;;;;;;;;16.80;75.30;;;;;;5042747;28;19932;-82
2022/04/21 12:46:15;;;;;;;;;;;16.80;71.30;;;;;;5049544;28;19925;-83
2022/04/21 12:48:42;;;;;;;;;;;17.00;72.40;;;;;;5039828;28;20379;-82
2022/04/21 12:51:09;;;;;;;;;;;17.00;71.90;;;;;;5039594;28;19975;-83
2022/04/21 12:53:36;;;;;;;;;;;17.20;72.60;;;;;;5031818;28;19969;-82
2022/04/21 12:56:03;;;;;;;;;;;17.30;74.00;;;;;;5058522;28;19925;-82
2022/04/21 12:58:31;;;;;;;;;;;17.10;70.20;;;;;;5043536;28;20320;-76
2022/04/21 13:01:00;;;;;;;;;;;17.20;72.10;;;;;;5036302;28;19990;-84
2022/04/21 13:03:27;;;;;;;;;;;17.10;72.90;;;;;;5050300;28;19947;-78
2022/04/21 13:05:55;;;;;;;;;;;16.90;70.30;;;;;;5039167;28;19931;-84
2022/04/21 13:08:21;;;;;;;;;;;16.90;71.10;;;;;;5036777;28;19996;-84
2022/04/21 13:10:48;;;;;;;;;;;17.10;72.40;;;;;;5056233;28;19928;-83
2022/04/21 13:13:14;;;;;;;;;;;17.00;71.50;;;;;;5050605;28;19925;-85
2022/04/21 13:15:41;;;;;;;;;;;17.30;72.00;;;;;;5033198;28;19974;-84
2022/04/21 13:18:07;;;;;;;;;;;17.50;73.10;;;;;;5046284;28;19935;-83
2022/04/21 13:23:18;;;;;;;;;;;17.20;74.90;;;;;;5039114;28;19932;-84
2022/04/21 13:25:45;;;;;;;;;;;17.30;73.90;;;;;;5024849;28;19961;-84
2022/04/21 13:28:12;;;;;;;;;;;17.40;74.30;;;;;;5049413;28;19925;-84
2022/04/21 13:30:38;;;;;;;;;;;17.50;72.10;;;;;;5030941;28;19928;-85
2022/04/21 13:33:22;;;;;;;;;;;17.20;74.80;;;;;;5036731;28;19939;-85
2022/04/21 13:35:49;;;;;;;;;;;17.10;73.20;;;;;;5022574;28;19933;-84
2022/04/21 13:38:16;;;;;;;;;;;17.00;73.40;;;;;;5032464;28;20015;-84
2022/04/21 13:40:43;;;;;;;;;;;17.00;75.20;;;;;;5033321;28;19931;-83
2022/04/21 13:43:10;;;;;;;;;;;16.80;77.00;;;;;;5037531;28;20382;-84
2022/04/21 13:45:36;;;;;;;;;;;16.70;73.30;;;;;;5042458;28;19925;-84
2022/04/21 13:48:04;;;;;;;;;;;16.60;73.70;;;;;;5027107;28;19956;-84
2022/04/21 13:50:30;;;;;;;;;;;16.70;73.60;;;;;;5024065;28;19925;-84
2022/04/21 13:52:57;;;;;;;;;;;16.70;74.90;;;;;;5051209;28;19972;-82
2022/04/21 13:55:23;;;;;;;;;;;16.80;75.50;;;;;;5022490;28;19929;-83
2022/04/21 13:57:50;;;;;;;;;;;17.10;76.70;;;;;;5040706;28;19940;-82
2022/04/21 14:00:17;;;;;;;;;;;17.30;73.70;;;;;;5045967;28;19925;-83
2022/04/21 14:02:43;;;;;;;;;;;17.10;74.00;;;;;;5040138;28;19932;-84
2022/04/21 14:05:10;;;;;;;;;;;17.10;75.40;;;;;;5054730;28;19970;-84
2022/04/21 14:07:37;;;;;;;;;;;17.10;74.40;;;;;;5042159;28;19925;-84
2022/04/21 14:10:03;;;;;;;;;;;16.90;74.10;;;;;;5055248;28;19924;-88
2022/04/21 14:12:30;;;;;;;;;;;17.00;75.90;;;;;;5063202;28;19931;-83
2022/04/21 14:14:57;;;;;;;;;;;17.00;78.20;;;;;;5020203;28;19975;-83
2022/04/21 14:17:23;;;;;;;;;;;17.10;75.50;;;;;;5014401;28;20400;-84
2022/04/21 14:19:50;;;;;;;;;;;17.30;76.40;;;;;;5050626;28;19929;-85
2022/04/21 14:22:17;;;;;;;;;;;17.40;76.30;;;;;;5036557;28;19928;-84
2022/04/21 14:24:44;;;;;;;;;;;17.40;75.70;;;;;;5048811;28;20682;-85
2022/04/21 14:27:10;;;;;;;;;;;17.30;74.40;;;;;;5034936;28;19929;-85
2022/04/21 14:29:37;;;;;;;;;;;17.10;76.60;;;;;;5026017;28;20566;-85
2022/04/21 14:32:04;;;;;;;;;;;17.10;74.00;;;;;;5048341;28;19925;-88
2022/04/21 14:34:30;;;;;;;;;;;17.20;74.70;;;;;;5041841;28;20288;-86
2022/04/21 14:36:57;;;;;;;;;;;17.20;75.60;;;;;;5021446;28;19929;-85
2022/04/21 14:44:53;;;;;;;;;;;17.30;77.40;;;;;;5044564;28;19932;-88
2022/04/21 14:47:19;;;;;;;;;;;17.30;76.20;;;;;;5030261;28;19936;-86
2022/04/21 14:49:46;;;;;;;;;;;17.40;76.40;;;;;;5038184;28;19935;-88
2022/04/21 14:52:12;;;;;;;;;;;17.40;76.90;;;;;;5039274;28;20511;-90
2022/04/21 14:54:39;;;;;;;;;;;17.20;77.00;;;;;;5032459;28;19928;-87
2022/04/21 14:57:06;;;;;;;;;;;17.20;78.70;;;;;;5047506;28;20384;-90
2022/04/21 14:59:32;;;;;;;;;;;17.40;80.00;;;;;;5033643;28;20571;-87
2022/04/21 15:01:59;;;;;;;;;;;17.40;79.60;;;;;;5033786;28;19935;-87
2022/04/21 15:04:25;;;;;;;;;;;17.60;81.40;;;;;;5050089;28;20044;-87
2022/04/21 15:06:52;;;;;;;;;;;17.70;81.60;;;;;;5031518;28;19925;-88
2022/04/21 15:09:18;;;;;;;;;;;17.50;82.30;;;;;;5036230;28;19936;-88
2022/04/21 15:11:46;;;;;;;;;;;17.60;82.90;;;;;;5043718;28;19935;-87
2022/04/21 15:14:13;;;;;;;;;;;17.60;82.60;;;;;;5050364;28;19971;-88
2022/04/21 15:16:39;;;;;;;;;;;17.20;83.20;;;;;;5034575;28;19940;-87
2022/04/21 15:19:06;;;;;;;;;;;17.10;85.30;;;;;;5021892;28;19929;-90
2022/04/21 15:21:36;;;;;;;;;;;16.90;84.90;;;;;;5032034;28;19932;-86